Hatch, New Mexico
Current Conditions -  °F | °C
As of 8:15 AM on Saturday 25 Oct 2014 (Local Time) from KLRU Reporting Station
Clear Clear  
Wind Chill: 57°   Ceiling: Unl
Heat Index: 57°   Visibility: 10mi
Dew Point: 47°   Wind: 0mph
Humidity: 71%   Direction: NA
Pressure: 30.27"   Gusts: NA
Location:  32.67°N, 107.15°W
Report Text: KLRU 251415Z AUTO 00000KT 10SM CLR 14/09 A3027 RMK AO2 T01370085 PWINO
Loading
Personal Weather Stations






























Interactive Weather Map
Tropical Storm Tracking
New forecast layout! Learn more

10-Day Weather Forecast

Advertisements
Track Severe Weather on mobile